sensor_id;sensor_type;location;lat;lon;timestamp;temperature;humidity
45969;DHT22;31676;40.444;-3.668;2023-03-14T00:01:39;23.90;79.90
45969;DHT22;31676;40.444;-3.668;2023-03-14T00:04:05;23.90;79.90
45969;DHT22;31676;40.444;-3.668;2023-03-14T00:06:30;23.90;79.30
45969;DHT22;31676;40.444;-3.668;2023-03-14T00:08:56;23.80;79.20
45969;DHT22;31676;40.444;-3.668;2023-03-14T00:11:22;23.90;79.30
45969;DHT22;31676;40.444;-3.668;2023-03-14T00:13:48;23.80;79.20
45969;DHT22;31676;40.444;-3.668;2023-03-14T00:16:14;23.90;79.30
45969;DHT22;31676;40.444;-3.668;2023-03-14T00:18:40;23.90;79.30
45969;DHT22;31676;40.444;-3.668;2023-03-14T00:21:06;23.90;79.30
45969;DHT22;31676;40.444;-3.668;2023-03-14T00:23:33;23.90;79.30
45969;DHT22;31676;40.444;-3.668;2023-03-14T00:26:09;23.80;79.20
45969;DHT22;31676;40.444;-3.668;2023-03-14T00:28:35;23.90;79.30
45969;DHT22;31676;40.444;-3.668;2023-03-14T00:31:04;23.80;79.20
45969;DHT22;31676;40.444;-3.668;2023-03-14T00:33:30;23.80;79.20
45969;DHT22;31676;40.444;-3.668;2023-03-14T00:36:00;23.80;79.20
45969;DHT22;31676;40.444;-3.668;2023-03-14T00:38:26;23.80;79.20
45969;DHT22;31676;40.444;-3.668;2023-03-14T00:40:52;23.90;79.30
45969;DHT22;31676;40.444;-3.668;2023-03-14T00:43:18;23.80;79.30
45969;DHT22;31676;40.444;-3.668;2023-03-14T00:45:44;23.80;79.30
45969;DHT22;31676;40.444;-3.668;2023-03-14T00:48:10;23.80;79.30
45969;DHT22;31676;40.444;-3.668;2023-03-14T00:50:35;23.80;79.20
45969;DHT22;31676;40.444;-3.668;2023-03-14T00:53:01;23.80;79.20
45969;DHT22;31676;40.444;-3.668;2023-03-14T00:55:27;23.80;79.30
45969;DHT22;31676;40.444;-3.668;2023-03-14T00:57:52;23.80;79.20
45969;DHT22;31676;40.444;-3.668;2023-03-14T01:00:18;23.80;79.30
45969;DHT22;31676;40.444;-3.668;2023-03-14T01:02:44;23.80;79.20
45969;DHT22;31676;40.444;-3.668;2023-03-14T01:05:09;23.80;79.20
45969;DHT22;31676;40.444;-3.668;2023-03-14T01:07:38;23.80;79.30
45969;DHT22;31676;40.444;-3.668;2023-03-14T01:10:04;23.80;79.20
45969;DHT22;31676;40.444;-3.668;2023-03-14T01:12:30;23.80;79.30
45969;DHT22;31676;40.444;-3.668;2023-03-14T01:14:56;23.80;79.30
45969;DHT22;31676;40.444;-3.668;2023-03-14T01:17:21;23.80;79.30
45969;DHT22;31676;40.444;-3.668;2023-03-14T01:19:47;23.80;79.30
45969;DHT22;31676;40.444;-3.668;2023-03-14T01:22:13;23.80;79.30
45969;DHT22;31676;40.444;-3.668;2023-03-14T01:24:39;23.80;79.30
45969;DHT22;31676;40.444;-3.668;2023-03-14T01:27:05;23.80;79.30
45969;DHT22;31676;40.444;-3.668;2023-03-14T01:29:30;23.80;79.30
45969;DHT22;31676;40.444;-3.668;2023-03-14T01:31:56;23.80;79.30
45969;DHT22;31676;40.444;-3.668;2023-03-14T01:34:22;23.80;79.30
45969;DHT22;31676;40.444;-3.668;2023-03-14T01:36:47;23.80;79.30
45969;DHT22;31676;40.444;-3.668;2023-03-14T01:39:13;23.80;79.30
45969;DHT22;31676;40.444;-3.668;2023-03-14T01:41:39;23.70;79.30
45969;DHT22;31676;40.444;-3.668;2023-03-14T01:44:05;23.80;79.30
45969;DHT22;31676;40.444;-3.668;2023-03-14T01:46:49;23.80;79.30
45969;DHT22;31676;40.444;-3.668;2023-03-14T01:49:17;23.80;79.30
45969;DHT22;31676;40.444;-3.668;2023-03-14T01:51:55;23.80;79.30
45969;DHT22;31676;40.444;-3.668;2023-03-14T01:54:35;23.70;79.20
45969;DHT22;31676;40.444;-3.668;2023-03-14T01:59:33;23.80;79.30
45969;DHT22;31676;40.444;-3.668;2023-03-14T02:01:59;23.70;79.20
45969;DHT22;31676;40.444;-3.668;2023-03-14T02:04:27;23.70;79.30
45969;DHT22;31676;40.444;-3.668;2023-03-14T02:06:58;23.80;79.30
45969;DHT22;31676;40.444;-3.668;2023-03-14T02:09:25;23.70;79.30
45969;DHT22;31676;40.444;-3.668;2023-03-14T02:11:51;23.70;79.30
45969;DHT22;31676;40.444;-3.668;2023-03-14T02:14:22;23.70;79.20
45969;DHT22;31676;40.444;-3.668;2023-03-14T02:16:50;23.70;79.20
45969;DHT22;31676;40.444;-3.668;2023-03-14T02:19:17;23.70;79.20
45969;DHT22;31676;40.444;-3.668;2023-03-14T02:25:19;23.70;79.30
45969;DHT22;31676;40.444;-3.668;2023-03-14T02:27:35;23.70;79.30
45969;DHT22;31676;40.444;-3.668;2023-03-14T02:30:05;23.70;79.30
45969;DHT22;31676;40.444;-3.668;2023-03-14T02:32:31;23.70;79.30
45969;DHT22;31676;40.444;-3.668;2023-03-14T02:34:58;23.70;79.30
45969;DHT22;31676;40.444;-3.668;2023-03-14T02:37:48;23.70;79.30
45969;DHT22;31676;40.444;-3.668;2023-03-14T02:40:11;23.70;79.30
45969;DHT22;31676;40.444;-3.668;2023-03-14T02:42:36;23.70;79.30
45969;DHT22;31676;40.444;-3.668;2023-03-14T02:47:34;23.70;79.30
45969;DHT22;31676;40.444;-3.668;2023-03-14T02:50:01;23.70;79.30
45969;DHT22;31676;40.444;-3.668;2023-03-14T02:52:27;23.70;79.30
45969;DHT22;31676;40.444;-3.668;2023-03-14T02:54:53;23.70;79.30
45969;DHT22;31676;40.444;-3.668;2023-03-14T02:57:19;23.70;79.30
45969;DHT22;31676;40.444;-3.668;2023-03-14T02:59:44;23.70;79.30
45969;DHT22;31676;40.444;-3.668;2023-03-14T03:02:10;23.70;79.30
45969;DHT22;31676;40.444;-3.668;2023-03-14T03:04:36;23.70;79.90
45969;DHT22;31676;40.444;-3.668;2023-03-14T03:07:01;23.70;79.30
45969;DHT22;31676;40.444;-3.668;2023-03-14T03:09:27;23.70;79.30
45969;DHT22;31676;40.444;-3.668;2023-03-14T03:11:53;23.70;79.30
45969;DHT22;31676;40.444;-3.668;2023-03-14T03:14:18;23.70;79.30
45969;DHT22;31676;40.444;-3.668;2023-03-14T03:16:44;23.70;79.30
45969;DHT22;31676;40.444;-3.668;2023-03-14T03:19:10;23.60;79.20
45969;DHT22;31676;40.444;-3.668;2023-03-14T03:21:35;23.70;79.30
45969;DHT22;31676;40.444;-3.668;2023-03-14T03:24:01;23.70;79.30
45969;DHT22;31676;40.444;-3.668;2023-03-14T03:26:26;23.70;79.30
45969;DHT22;31676;40.444;-3.668;2023-03-14T03:28:52;23.70;79.30
45969;DHT22;31676;40.444;-3.668;2023-03-14T03:31:18;23.70;79.30
45969;DHT22;31676;40.444;-3.668;2023-03-14T03:33:43;23.60;79.20
45969;DHT22;31676;40.444;-3.668;2023-03-14T03:36:09;23.70;79.30
45969;DHT22;31676;40.444;-3.668;2023-03-14T03:38:35;23.60;79.20
45969;DHT22;31676;40.444;-3.668;2023-03-14T03:41:04;23.60;79.20
45969;DHT22;31676;40.444;-3.668;2023-03-14T03:43:30;23.60;79.30
45969;DHT22;31676;40.444;-3.668;2023-03-14T03:45:56;23.60;79.30
45969;DHT22;31676;40.444;-3.668;2023-03-14T03:48:21;23.60;79.30
45969;DHT22;31676;40.444;-3.668;2023-03-14T03:50:47;23.60;79.20
45969;DHT22;31676;40.444;-3.668;2023-03-14T03:53:13;23.60;79.20
45969;DHT22;31676;40.444;-3.668;2023-03-14T03:55:41;23.60;79.30
45969;DHT22;31676;40.444;-3.668;2023-03-14T03:58:07;23.60;79.20
45969;DHT22;31676;40.444;-3.668;2023-03-14T04:00:33;23.60;79.20
45969;DHT22;31676;40.444;-3.668;2023-03-14T04:02:59;23.60;79.30
45969;DHT22;31676;40.444;-3.668;2023-03-14T04:05:26;23.60;79.30
45969;DHT22;31676;40.444;-3.668;2023-03-14T04:07:51;23.60;79.30
45969;DHT22;31676;40.444;-3.668;2023-03-14T04:10:17;23.60;79.30
45969;DHT22;31676;40.444;-3.668;2023-03-14T04:12:43;23.60;79.30
45969;DHT22;31676;40.444;-3.668;2023-03-14T04:15:09;23.60;79.30
45969;DHT22;31676;40.444;-3.668;2023-03-14T04:17:34;23.50;79.20
45969;DHT22;31676;40.444;-3.668;2023-03-14T04:20:00;23.60;79.30
45969;DHT22;31676;40.444;-3.668;2023-03-14T04:22:26;23.60;79.30
45969;DHT22;31676;40.444;-3.668;2023-03-14T04:24:51;23.60;79.30
45969;DHT22;31676;40.444;-3.668;2023-03-14T04:27:17;23.60;79.30
45969;DHT22;31676;40.444;-3.668;2023-03-14T04:29:43;23.60;79.30
45969;DHT22;31676;40.444;-3.668;2023-03-14T04:32:08;23.60;79.30
45969;DHT22;31676;40.444;-3.668;2023-03-14T04:34:34;23.60;79.30
45969;DHT22;31676;40.444;-3.668;2023-03-14T04:37:00;23.60;79.30
45969;DHT22;31676;40.444;-3.668;2023-03-14T04:39:26;23.60;79.30
45969;DHT22;31676;40.444;-3.668;2023-03-14T04:41:51;23.60;79.30
45969;DHT22;31676;40.444;-3.668;2023-03-14T04:44:17;23.60;79.30
45969;DHT22;31676;40.444;-3.668;2023-03-14T04:46:43;23.60;79.30
45969;DHT22;31676;40.444;-3.668;2023-03-14T04:49:09;23.60;79.30
45969;DHT22;31676;40.444;-3.668;2023-03-14T04:51:34;23.60;79.30
45969;DHT22;31676;40.444;-3.668;2023-03-14T04:54:00;23.50;79.20
45969;DHT22;31676;40.444;-3.668;2023-03-14T04:56:26;23.60;79.30
45969;DHT22;31676;40.444;-3.668;2023-03-14T04:58:55;23.50;79.20
45969;DHT22;31676;40.444;-3.668;2023-03-14T05:01:21;23.50;79.20
45969;DHT22;31676;40.444;-3.668;2023-03-14T05:03:47;23.50;79.20
45969;DHT22;31676;40.444;-3.668;2023-03-14T05:06:14;23.60;79.30
45969;DHT22;31676;40.444;-3.668;2023-03-14T05:08:40;23.50;79.20
45969;DHT22;31676;40.444;-3.668;2023-03-14T05:11:06;23.50;79.30
45969;DHT22;31676;40.444;-3.668;2023-03-14T05:13:31;23.50;79.20
45969;DHT22;31676;40.444;-3.668;2023-03-14T05:16:07;23.50;79.20
45969;DHT22;31676;40.444;-3.668;2023-03-14T05:18:33;23.50;79.20
45969;DHT22;31676;40.444;-3.668;2023-03-14T05:20:59;23.50;79.20
45969;DHT22;31676;40.444;-3.668;2023-03-14T05:23:25;23.50;79.20
45969;DHT22;31676;40.444;-3.668;2023-03-14T05:25:50;23.50;79.20
45969;DHT22;31676;40.444;-3.668;2023-03-14T05:28:16;23.50;79.20
45969;DHT22;31676;40.444;-3.668;2023-03-14T05:30:42;23.50;79.20
45969;DHT22;31676;40.444;-3.668;2023-03-14T05:33:07;23.50;79.20
45969;DHT22;31676;40.444;-3.668;2023-03-14T05:35:33;23.50;79.20
45969;DHT22;31676;40.444;-3.668;2023-03-14T05:37:59;23.50;79.30
45969;DHT22;31676;40.444;-3.668;2023-03-14T05:40:25;23.40;79.20
45969;DHT22;31676;40.444;-3.668;2023-03-14T05:42:51;23.50;79.30
45969;DHT22;31676;40.444;-3.668;2023-03-14T05:45:17;23.50;79.20
45969;DHT22;31676;40.444;-3.668;2023-03-14T05:47:43;23.40;79.20
45969;DHT22;31676;40.444;-3.668;2023-03-14T05:50:09;23.50;79.20
45969;DHT22;31676;40.444;-3.668;2023-03-14T05:52:35;23.40;79.20
45969;DHT22;31676;40.444;-3.668;2023-03-14T05:55:01;23.40;79.80
45969;DHT22;31676;40.444;-3.668;2023-03-14T05:57:26;23.40;79.20
45969;DHT22;31676;40.444;-3.668;2023-03-14T05:59:52;23.40;79.20
45969;DHT22;31676;40.444;-3.668;2023-03-14T06:02:18;23.40;79.20
45969;DHT22;31676;40.444;-3.668;2023-03-14T06:04:43;23.50;79.30
45969;DHT22;31676;40.444;-3.668;2023-03-14T06:07:09;23.40;79.20
45969;DHT22;31676;40.444;-3.668;2023-03-14T06:09:35;23.50;79.30
45969;DHT22;31676;40.444;-3.668;2023-03-14T06:12:00;23.40;79.20
45969;DHT22;31676;40.444;-3.668;2023-03-14T06:14:26;23.40;79.20
45969;DHT22;31676;40.444;-3.668;2023-03-14T06:16:52;23.40;79.20
45969;DHT22;31676;40.444;-3.668;2023-03-14T06:19:18;23.40;79.20
45969;DHT22;31676;40.444;-3.668;2023-03-14T06:21:43;23.40;79.20
45969;DHT22;31676;40.444;-3.668;2023-03-14T06:24:09;23.40;79.20
45969;DHT22;31676;40.444;-3.668;2023-03-14T06:26:35;23.40;79.20
45969;DHT22;31676;40.444;-3.668;2023-03-14T06:29:01;23.40;79.20
45969;DHT22;31676;40.444;-3.668;2023-03-14T06:31:29;23.40;79.20
45969;DHT22;31676;40.444;-3.668;2023-03-14T06:33:55;23.40;79.20
45969;DHT22;31676;40.444;-3.668;2023-03-14T06:36:21;23.40;79.20
45969;DHT22;31676;40.444;-3.668;2023-03-14T06:38:47;23.40;79.20
45969;DHT22;31676;40.444;-3.668;2023-03-14T06:41:12;23.40;79.20
45969;DHT22;31676;40.444;-3.668;2023-03-14T06:43:38;23.40;79.20
45969;DHT22;31676;40.444;-3.668;2023-03-14T06:46:04;23.40;79.20
45969;DHT22;31676;40.444;-3.668;2023-03-14T06:48:30;23.40;79.20
45969;DHT22;31676;40.444;-3.668;2023-03-14T06:50:55;23.40;79.20
45969;DHT22;31676;40.444;-3.668;2023-03-14T06:53:21;23.40;79.20
45969;DHT22;31676;40.444;-3.668;2023-03-14T06:55:47;23.40;79.20
45969;DHT22;31676;40.444;-3.668;2023-03-14T06:58:12;23.40;79.20
45969;DHT22;31676;40.444;-3.668;2023-03-14T07:00:38;23.40;79.20
45969;DHT22;31676;40.444;-3.668;2023-03-14T07:03:04;23.40;79.20
45969;DHT22;31676;40.444;-3.668;2023-03-14T07:05:29;23.30;79.20
45969;DHT22;31676;40.444;-3.668;2023-03-14T07:07:55;23.40;79.30
45969;DHT22;31676;40.444;-3.668;2023-03-14T07:10:21;23.40;79.20
45969;DHT22;31676;40.444;-3.668;2023-03-14T07:12:47;23.40;79.20
45969;DHT22;31676;40.444;-3.668;2023-03-14T07:15:13;23.40;79.20
45969;DHT22;31676;40.444;-3.668;2023-03-14T07:17:38;23.30;79.20
45969;DHT22;31676;40.444;-3.668;2023-03-14T07:20:04;23.30;79.20
45969;DHT22;31676;40.444;-3.668;2023-03-14T07:22:30;23.40;79.20
45969;DHT22;31676;40.444;-3.668;2023-03-14T07:24:56;23.40;79.30
45969;DHT22;31676;40.444;-3.668;2023-03-14T07:27:22;23.30;79.20
45969;DHT22;31676;40.444;-3.668;2023-03-14T07:29:47;23.30;79.20
45969;DHT22;31676;40.444;-3.668;2023-03-14T07:32:13;23.30;79.20
45969;DHT22;31676;40.444;-3.668;2023-03-14T07:34:43;23.30;79.20
45969;DHT22;31676;40.444;-3.668;2023-03-14T07:37:09;23.30;79.20
45969;DHT22;31676;40.444;-3.668;2023-03-14T07:39:35;23.30;79.20
45969;DHT22;31676;40.444;-3.668;2023-03-14T07:42:00;23.30;79.20
45969;DHT22;31676;40.444;-3.668;2023-03-14T07:44:26;23.30;79.20
45969;DHT22;31676;40.444;-3.668;2023-03-14T07:46:52;23.30;79.20
45969;DHT22;31676;40.444;-3.668;2023-03-14T07:49:18;23.30;79.20
45969;DHT22;31676;40.444;-3.668;2023-03-14T07:51:43;23.30;79.20
45969;DHT22;31676;40.444;-3.668;2023-03-14T07:54:09;23.30;79.20
45969;DHT22;31676;40.444;-3.668;2023-03-14T07:56:35;23.30;79.20
45969;DHT22;31676;40.444;-3.668;2023-03-14T07:59:01;23.30;79.20
45969;DHT22;31676;40.444;-3.668;2023-03-14T08:01:26;23.30;79.20
45969;DHT22;31676;40.444;-3.668;2023-03-14T08:03:52;23.30;79.20
45969;DHT22;31676;40.444;-3.668;2023-03-14T08:06:18;23.30;79.20
45969;DHT22;31676;40.444;-3.668;2023-03-14T08:08:44;23.30;79.20
45969;DHT22;31676;40.444;-3.668;2023-03-14T08:11:10;23.30;79.20
45969;DHT22;31676;40.444;-3.668;2023-03-14T08:13:36;23.30;79.20
45969;DHT22;31676;40.444;-3.668;2023-03-14T08:16:01;23.40;79.20
45969;DHT22;31676;40.444;-3.668;2023-03-14T08:18:27;23.30;79.20
45969;DHT22;31676;40.444;-3.668;2023-03-14T08:20:53;23.30;79.20
45969;DHT22;31676;40.444;-3.668;2023-03-14T08:23:18;23.20;79.10
45969;DHT22;31676;40.444;-3.668;2023-03-14T08:25:44;23.30;79.20
45969;DHT22;31676;40.444;-3.668;2023-03-14T08:28:10;23.30;79.20
45969;DHT22;31676;40.444;-3.668;2023-03-14T08:30:35;23.30;79.20
45969;DHT22;31676;40.444;-3.668;2023-03-14T08:33:01;23.20;79.10
45969;DHT22;31676;40.444;-3.668;2023-03-14T08:35:27;23.20;79.10
45969;DHT22;31676;40.444;-3.668;2023-03-14T08:37:52;23.30;79.20
45969;DHT22;31676;40.444;-3.668;2023-03-14T08:40:18;23.30;79.10
45969;DHT22;31676;40.444;-3.668;2023-03-14T08:42:44;23.20;79.10
45969;DHT22;31676;40.444;-3.668;2023-03-14T08:45:11;23.30;79.20
45969;DHT22;31676;40.444;-3.668;2023-03-14T08:47:37;23.20;79.10
45969;DHT22;31676;40.444;-3.668;2023-03-14T08:50:03;23.20;79.10
45969;DHT22;31676;40.444;-3.668;2023-03-14T08:52:30;23.30;79.10
45969;DHT22;31676;40.444;-3.668;2023-03-14T08:54:56;23.20;79.00
45969;DHT22;31676;40.444;-3.668;2023-03-14T08:57:21;23.30;79.10
45969;DHT22;31676;40.444;-3.668;2023-03-14T08:59:56;23.30;79.10
45969;DHT22;31676;40.444;-3.668;2023-03-14T09:02:22;23.20;79.00
45969;DHT22;31676;40.444;-3.668;2023-03-14T09:04:49;23.30;79.00
45969;DHT22;31676;40.444;-3.668;2023-03-14T09:07:15;23.30;79.00
45969;DHT22;31676;40.444;-3.668;2023-03-14T09:09:41;23.30;79.10
45969;DHT22;31676;40.444;-3.668;2023-03-14T09:12:06;23.30;79.00
45969;DHT22;31676;40.444;-3.668;2023-03-14T09:14:32;23.30;79.00
45969;DHT22;31676;40.444;-3.668;2023-03-14T09:16:58;23.30;79.00
45969;DHT22;31676;40.444;-3.668;2023-03-14T09:19:23;23.30;79.00
45969;DHT22;31676;40.444;-3.668;2023-03-14T09:21:49;23.30;79.00
45969;DHT22;31676;40.444;-3.668;2023-03-14T09:24:15;23.30;79.00
45969;DHT22;31676;40.444;-3.668;2023-03-14T09:26:41;23.30;79.10
45969;DHT22;31676;40.444;-3.668;2023-03-14T09:29:07;23.30;79.00
45969;DHT22;31676;40.444;-3.668;2023-03-14T09:31:33;23.30;79.00
45969;DHT22;31676;40.444;-3.668;2023-03-14T09:33:58;23.30;79.00
45969;DHT22;31676;40.444;-3.668;2023-03-14T09:36:24;23.30;79.00
45969;DHT22;31676;40.444;-3.668;2023-03-14T09:38:50;23.30;79.00
45969;DHT22;31676;40.444;-3.668;2023-03-14T09:41:16;23.30;79.00
45969;DHT22;31676;40.444;-3.668;2023-03-14T09:43:43;23.30;79.00
45969;DHT22;31676;40.444;-3.668;2023-03-14T09:46:10;23.30;79.00
45969;DHT22;31676;40.444;-3.668;2023-03-14T09:48:36;23.30;79.00
45969;DHT22;31676;40.444;-3.668;2023-03-14T09:51:04;23.30;79.00
45969;DHT22;31676;40.444;-3.668;2023-03-14T09:53:39;23.30;79.00
45969;DHT22;31676;40.444;-3.668;2023-03-14T09:56:07;23.30;79.00
45969;DHT22;31676;40.444;-3.668;2023-03-14T09:58:34;23.30;79.00
45969;DHT22;31676;40.444;-3.668;2023-03-14T10:01:01;23.30;79.00
45969;DHT22;31676;40.444;-3.668;2023-03-14T10:03:34;23.30;78.90
45969;DHT22;31676;40.444;-3.668;2023-03-14T10:06:00;23.30;79.00
45969;DHT22;31676;40.444;-3.668;2023-03-14T10:08:26;23.30;78.90
45969;DHT22;31676;40.444;-3.668;2023-03-14T10:10:51;23.40;79.00
45969;DHT22;31676;40.444;-3.668;2023-03-14T10:13:21;23.30;78.90
45969;DHT22;31676;40.444;-3.668;2023-03-14T10:16:07;23.30;78.90
45969;DHT22;31676;40.444;-3.668;2023-03-14T10:18:33;23.30;78.90
45969;DHT22;31676;40.444;-3.668;2023-03-14T10:21:04;23.30;78.90
45969;DHT22;31676;40.444;-3.668;2023-03-14T10:23:32;23.40;79.00
45969;DHT22;31676;40.444;-3.668;2023-03-14T10:26:00;23.30;78.90
45969;DHT22;31676;40.444;-3.668;2023-03-14T10:28:29;23.40;79.00
45969;DHT22;31676;40.444;-3.668;2023-03-14T10:30:55;23.40;78.90
45969;DHT22;31676;40.444;-3.668;2023-03-14T10:33:29;23.40;78.90
45969;DHT22;31676;40.444;-3.668;2023-03-14T10:36:02;23.30;78.80
45969;DHT22;31676;40.444;-3.668;2023-03-14T10:38:29;23.40;78.90
45969;DHT22;31676;40.444;-3.668;2023-03-14T10:40:55;23.40;78.90
45969;DHT22;31676;40.444;-3.668;2023-03-14T10:43:23;23.40;78.90
45969;DHT22;31676;40.444;-3.668;2023-03-14T10:45:53;23.40;78.90
45969;DHT22;31676;40.444;-3.668;2023-03-14T10:48:24;23.40;78.80
45969;DHT22;31676;40.444;-3.668;2023-03-14T10:50:56;23.40;78.80
45969;DHT22;31676;40.444;-3.668;2023-03-14T10:53:22;23.40;78.90
45969;DHT22;31676;40.444;-3.668;2023-03-14T10:55:47;23.40;78.80
45969;DHT22;31676;40.444;-3.668;2023-03-14T10:58:25;23.40;78.80
45969;DHT22;31676;40.444;-3.668;2023-03-14T11:00:52;23.40;78.80
45969;DHT22;31676;40.444;-3.668;2023-03-14T11:03:19;23.40;78.80
45969;DHT22;31676;40.444;-3.668;2023-03-14T11:05:53;23.40;78.80
45969;DHT22;31676;40.444;-3.668;2023-03-14T11:10:48;23.40;78.80
45969;DHT22;31676;40.444;-3.668;2023-03-14T11:23:34;23.40;78.80
45969;DHT22;31676;40.444;-3.668;2023-03-14T11:28:30;23.50;78.80
45969;DHT22;31676;40.444;-3.668;2023-03-14T11:33:46;23.50;78.80
45969;DHT22;31676;40.444;-3.668;2023-03-14T11:36:15;23.50;78.80
45969;DHT22;31676;40.444;-3.668;2023-03-14T11:41:14;23.50;78.80
45969;DHT22;31676;40.444;-3.668;2023-03-14T11:43:52;23.50;78.80
45969;DHT22;31676;40.444;-3.668;2023-03-14T11:51:35;23.50;78.80
45969;DHT22;31676;40.444;-3.668;2023-03-14T11:56:45;23.50;78.70
45969;DHT22;31676;40.444;-3.668;2023-03-14T11:59:14;23.50;78.80
45969;DHT22;31676;40.444;-3.668;2023-03-14T12:01:55;23.50;78.70
45969;DHT22;31676;40.444;-3.668;2023-03-14T12:06:53;23.50;79.40
45969;DHT22;31676;40.444;-3.668;2023-03-14T12:09:21;23.60;78.80
45969;DHT22;31676;40.444;-3.668;2023-03-14T12:11:51;23.60;78.80
45969;DHT22;31676;40.444;-3.668;2023-03-14T12:14:23;23.60;78.80
45969;DHT22;31676;40.444;-3.668;2023-03-14T12:16:52;23.50;78.70
45969;DHT22;31676;40.444;-3.668;2023-03-14T12:21:52;23.50;78.70
45969;DHT22;31676;40.444;-3.668;2023-03-14T12:24:22;23.50;78.70
45969;DHT22;31676;40.444;-3.668;2023-03-14T12:26:51;23.50;78.70
45969;DHT22;31676;40.444;-3.668;2023-03-14T12:29:17;23.60;78.70
45969;DHT22;31676;40.444;-3.668;2023-03-14T12:31:47;23.60;78.70
45969;DHT22;31676;40.444;-3.668;2023-03-14T12:39:10;23.60;78.70
45969;DHT22;31676;40.444;-3.668;2023-03-14T12:41:40;23.60;78.70
45969;DHT22;31676;40.444;-3.668;2023-03-14T12:46:54;23.60;78.70
45969;DHT22;31676;40.444;-3.668;2023-03-14T12:49:20;23.60;78.70
45969;DHT22;31676;40.444;-3.668;2023-03-14T12:51:48;23.60;78.70
45969;DHT22;31676;40.444;-3.668;2023-03-14T12:57:06;23.60;78.70
45969;DHT22;31676;40.444;-3.668;2023-03-14T13:00:17;23.70;78.80
45969;DHT22;31676;40.444;-3.668;2023-03-14T13:02:25;23.60;78.70
45969;DHT22;31676;40.444;-3.668;2023-03-14T13:04:52;23.60;78.70
45969;DHT22;31676;40.444;-3.668;2023-03-14T13:10:00;23.70;78.70
45969;DHT22;31676;40.444;-3.668;2023-03-14T13:12:28;23.70;78.70
45969;DHT22;31676;40.444;-3.668;2023-03-14T13:14:57;23.70;78.70
45969;DHT22;31676;40.444;-3.668;2023-03-14T13:17:25;23.70;78.70
45969;DHT22;31676;40.444;-3.668;2023-03-14T13:19:55;23.70;78.70
45969;DHT22;31676;40.444;-3.668;2023-03-14T13:22:24;23.70;78.70
45969;DHT22;31676;40.444;-3.668;2023-03-14T13:24:57;23.70;78.70
45969;DHT22;31676;40.444;-3.668;2023-03-14T13:27:23;23.70;78.70
45969;DHT22;31676;40.444;-3.668;2023-03-14T13:29:50;23.70;78.60
45969;DHT22;31676;40.444;-3.668;2023-03-14T13:32:19;23.70;78.60
45969;DHT22;31676;40.444;-3.668;2023-03-14T13:34:45;23.80;78.70
45969;DHT22;31676;40.444;-3.668;2023-03-14T13:37:16;23.70;78.60
45969;DHT22;31676;40.444;-3.668;2023-03-14T13:39:42;23.70;78.60
45969;DHT22;31676;40.444;-3.668;2023-03-14T13:42:13;23.80;78.70
45969;DHT22;31676;40.444;-3.668;2023-03-14T13:44:40;23.80;78.70
45969;DHT22;31676;40.444;-3.668;2023-03-14T13:47:09;23.80;78.70
45969;DHT22;31676;40.444;-3.668;2023-03-14T13:49:37;23.80;78.60
45969;DHT22;31676;40.444;-3.668;2023-03-14T13:52:04;23.70;78.60
45969;DHT22;31676;40.444;-3.668;2023-03-14T13:54:30;23.80;78.60
45969;DHT22;31676;40.444;-3.668;2023-03-14T13:57:03;23.80;78.60
45969;DHT22;31676;40.444;-3.668;2023-03-14T13:59:33;23.80;78.60
45969;DHT22;31676;40.444;-3.668;2023-03-14T14:02:12;23.80;78.60
45969;DHT22;31676;40.444;-3.668;2023-03-14T14:04:38;23.80;78.60
45969;DHT22;31676;40.444;-3.668;2023-03-14T14:07:07;23.80;78.60
45969;DHT22;31676;40.444;-3.668;2023-03-14T14:09:37;23.80;78.60
45969;DHT22;31676;40.444;-3.668;2023-03-14T14:14:34;23.80;78.60
45969;DHT22;31676;40.444;-3.668;2023-03-14T14:17:00;23.80;78.60
45969;DHT22;31676;40.444;-3.668;2023-03-14T14:19:27;23.80;78.60
45969;DHT22;31676;40.444;-3.668;2023-03-14T14:21:54;23.80;78.60
45969;DHT22;31676;40.444;-3.668;2023-03-14T14:24:20;23.80;78.50
45969;DHT22;31676;40.444;-3.668;2023-03-14T14:26:53;23.80;78.50
45969;DHT22;31676;40.444;-3.668;2023-03-14T14:29:32;23.80;78.50
45969;DHT22;31676;40.444;-3.668;2023-03-14T14:37:05;23.90;78.60
45969;DHT22;31676;40.444;-3.668;2023-03-14T14:39:39;23.80;78.50
45969;DHT22;31676;40.444;-3.668;2023-03-14T14:42:12;23.90;78.50
45969;DHT22;31676;40.444;-3.668;2023-03-14T14:44:38;23.90;78.60
45969;DHT22;31676;40.444;-3.668;2023-03-14T14:47:04;23.90;78.50
45969;DHT22;31676;40.444;-3.668;2023-03-14T14:49:30;23.90;78.50
45969;DHT22;31676;40.444;-3.668;2023-03-14T14:54:57;23.90;78.50
45969;DHT22;31676;40.444;-3.668;2023-03-14T14:57:27;23.90;78.50
45969;DHT22;31676;40.444;-3.668;2023-03-14T14:59:56;23.90;78.50
45969;DHT22;31676;40.444;-3.668;2023-03-14T15:02:35;23.90;78.50
45969;DHT22;31676;40.444;-3.668;2023-03-14T15:05:01;23.90;78.50
45969;DHT22;31676;40.444;-3.668;2023-03-14T15:07:26;23.90;78.50
45969;DHT22;31676;40.444;-3.668;2023-03-14T15:09:52;24.00;78.50
45969;DHT22;31676;40.444;-3.668;2023-03-14T15:12:18;23.90;78.50
45969;DHT22;31676;40.444;-3.668;2023-03-14T15:14:45;24.00;78.50
45969;DHT22;31676;40.444;-3.668;2023-03-14T15:17:11;23.90;78.50
45969;DHT22;31676;40.444;-3.668;2023-03-14T15:19:37;24.00;78.50
45969;DHT22;31676;40.444;-3.668;2023-03-14T15:22:03;24.00;78.50
45969;DHT22;31676;40.444;-3.668;2023-03-14T15:24:28;23.90;78.50
45969;DHT22;31676;40.444;-3.668;2023-03-14T15:26:54;23.90;78.40
45969;DHT22;31676;40.444;-3.668;2023-03-14T15:29:20;24.00;78.50
45969;DHT22;31676;40.444;-3.668;2023-03-14T15:31:45;23.90;78.50
45969;DHT22;31676;40.444;-3.668;2023-03-14T15:34:11;24.00;78.50
45969;DHT22;31676;40.444;-3.668;2023-03-14T15:36:37;24.00;78.50
45969;DHT22;31676;40.444;-3.668;2023-03-14T15:39:04;24.00;78.50
45969;DHT22;31676;40.444;-3.668;2023-03-14T15:41:30;24.00;78.50
45969;DHT22;31676;40.444;-3.668;2023-03-14T15:43:56;24.00;78.50
45969;DHT22;31676;40.444;-3.668;2023-03-14T15:46:22;24.00;78.50
45969;DHT22;31676;40.444;-3.668;2023-03-14T15:48:48;24.00;78.50
45969;DHT22;31676;40.444;-3.668;2023-03-14T15:51:14;24.00;78.50
45969;DHT22;31676;40.444;-3.668;2023-03-14T15:53:40;24.00;78.50
45969;DHT22;31676;40.444;-3.668;2023-03-14T15:56:07;24.00;78.50
45969;DHT22;31676;40.444;-3.668;2023-03-14T15:58:33;24.00;78.50
45969;DHT22;31676;40.444;-3.668;2023-03-14T16:01:02;24.00;78.50
45969;DHT22;31676;40.444;-3.668;2023-03-14T16:03:28;24.10;78.50
45969;DHT22;31676;40.444;-3.668;2023-03-14T16:05:54;24.10;78.50
45969;DHT22;31676;40.444;-3.668;2023-03-14T16:08:21;24.10;78.50
45969;DHT22;31676;40.444;-3.668;2023-03-14T16:10:47;24.00;78.50
45969;DHT22;31676;40.444;-3.668;2023-03-14T16:13:13;24.10;78.50
45969;DHT22;31676;40.444;-3.668;2023-03-14T16:15:38;24.00;78.50
45969;DHT22;31676;40.444;-3.668;2023-03-14T16:18:04;24.10;78.50
45969;DHT22;31676;40.444;-3.668;2023-03-14T16:20:30;24.00;78.50